sensor_id;sensor_type;location;lat;lon;timestamp;P1;durP1;ratioP1;P2;durP2;ratioP2
66721;SDS011;53633;49.932;10.884;2023-11-19T00:00:48;5.97;;;2.08;;
66721;SDS011;53633;49.932;10.884;2023-11-19T00:03:19;5.95;;;2.00;;
66721;SDS011;53633;49.932;10.884;2023-11-19T00:05:46;6.45;;;1.83;;
66721;SDS011;53633;49.932;10.884;2023-11-19T00:08:13;5.57;;;1.70;;
66721;SDS011;53633;49.932;10.884;2023-11-19T00:10:39;5.35;;;1.90;;
66721;SDS011;53633;49.932;10.884;2023-11-19T00:13:06;5.93;;;1.77;;
66721;SDS011;53633;49.932;10.884;2023-11-19T00:15:33;5.65;;;1.67;;
66721;SDS011;53633;49.932;10.884;2023-11-19T00:17:59;5.90;;;1.90;;
66721;SDS011;53633;49.932;10.884;2023-11-19T00:20:29;5.83;;;1.90;;
66721;SDS011;53633;49.932;10.884;2023-11-19T00:22:55;6.50;;;1.77;;
66721;SDS011;53633;49.932;10.884;2023-11-19T00:25:22;7.50;;;2.35;;
66721;SDS011;53633;49.932;10.884;2023-11-19T00:27:49;7.63;;;1.85;;
66721;SDS011;53633;49.932;10.884;2023-11-19T00:30:16;6.25;;;2.40;;
66721;SDS011;53633;49.932;10.884;2023-11-19T00:32:42;5.67;;;1.93;;
66721;SDS011;53633;49.932;10.884;2023-11-19T00:35:09;5.68;;;1.98;;
66721;SDS011;53633;49.932;10.884;2023-11-19T00:37:38;6.97;;;1.92;;
66721;SDS011;53633;49.932;10.884;2023-11-19T00:40:05;7.13;;;2.10;;
66721;SDS011;53633;49.932;10.884;2023-11-19T00:42:32;7.35;;;2.20;;
66721;SDS011;53633;49.932;10.884;2023-11-19T00:44:59;6.70;;;1.90;;
66721;SDS011;53633;49.932;10.884;2023-11-19T00:47:26;5.68;;;2.17;;
66721;SDS011;53633;49.932;10.884;2023-11-19T00:49:53;5.90;;;2.33;;
66721;SDS011;53633;49.932;10.884;2023-11-19T00:52:19;6.63;;;2.05;;
66721;SDS011;53633;49.932;10.884;2023-11-19T00:54:48;7.15;;;2.38;;
66721;SDS011;53633;49.932;10.884;2023-11-19T00:57:14;5.73;;;2.10;;
66721;SDS011;53633;49.932;10.884;2023-11-19T00:59:41;5.10;;;2.00;;
66721;SDS011;53633;49.932;10.884;2023-11-19T01:02:08;5.90;;;2.03;;
66721;SDS011;53633;49.932;10.884;2023-11-19T01:04:35;6.20;;;2.17;;
66721;SDS011;53633;49.932;10.884;2023-11-19T01:07:02;5.70;;;1.90;;
66721;SDS011;53633;49.932;10.884;2023-11-19T01:09:30;6.60;;;1.70;;
66721;SDS011;53633;49.932;10.884;2023-11-19T01:11:58;5.75;;;2.10;;
66721;SDS011;53633;49.932;10.884;2023-11-19T01:14:24;7.38;;;1.73;;
66721;SDS011;53633;49.932;10.884;2023-11-19T01:16:51;4.90;;;1.52;;
66721;SDS011;53633;49.932;10.884;2023-11-19T01:19:18;6.63;;;2.08;;
66721;SDS011;53633;49.932;10.884;2023-11-19T01:21:45;5.67;;;1.60;;
66721;SDS011;53633;49.932;10.884;2023-11-19T01:24:11;5.20;;;1.98;;
66721;SDS011;53633;49.932;10.884;2023-11-19T01:26:38;5.72;;;1.80;;
66721;SDS011;53633;49.932;10.884;2023-11-19T01:29:06;5.80;;;1.90;;
66721;SDS011;53633;49.932;10.884;2023-11-19T01:31:33;5.72;;;1.60;;
66721;SDS011;53633;49.932;10.884;2023-11-19T01:34:00;5.67;;;1.70;;
66721;SDS011;53633;49.932;10.884;2023-11-19T01:36:27;6.55;;;1.92;;
66721;SDS011;53633;49.932;10.884;2023-11-19T01:38:53;5.30;;;1.80;;
66721;SDS011;53633;49.932;10.884;2023-11-19T01:41:20;4.97;;;1.80;;
66721;SDS011;53633;49.932;10.884;2023-11-19T01:43:47;5.05;;;1.80;;
66721;SDS011;53633;49.932;10.884;2023-11-19T01:46:15;5.80;;;1.67;;
66721;SDS011;53633;49.932;10.884;2023-11-19T01:48:42;5.03;;;1.55;;
66721;SDS011;53633;49.932;10.884;2023-11-19T01:51:11;5.40;;;1.98;;
66721;SDS011;53633;49.932;10.884;2023-11-19T01:53:39;6.18;;;2.00;;
66721;SDS011;53633;49.932;10.884;2023-11-19T01:56:07;6.57;;;1.92;;
66721;SDS011;53633;49.932;10.884;2023-11-19T01:58:35;5.13;;;1.70;;
66721;SDS011;53633;49.932;10.884;2023-11-19T02:01:02;5.75;;;1.73;;
66721;SDS011;53633;49.932;10.884;2023-11-19T02:03:31;5.50;;;1.65;;
66721;SDS011;53633;49.932;10.884;2023-11-19T02:05:59;5.07;;;1.65;;
66721;SDS011;53633;49.932;10.884;2023-11-19T02:08:26;4.57;;;1.40;;
66721;SDS011;53633;49.932;10.884;2023-11-19T02:10:53;5.23;;;1.90;;
66721;SDS011;53633;49.932;10.884;2023-11-19T02:13:19;5.07;;;1.50;;
66721;SDS011;53633;49.932;10.884;2023-11-19T02:15:46;4.68;;;1.58;;
66721;SDS011;53633;49.932;10.884;2023-11-19T02:18:19;5.10;;;1.55;;
66721;SDS011;53633;49.932;10.884;2023-11-19T02:20:49;5.15;;;1.40;;
66721;SDS011;53633;49.932;10.884;2023-11-19T02:23:16;4.63;;;1.40;;
66721;SDS011;53633;49.932;10.884;2023-11-19T02:25:46;4.75;;;1.33;;
66721;SDS011;53633;49.932;10.884;2023-11-19T02:28:19;4.88;;;1.48;;
66721;SDS011;53633;49.932;10.884;2023-11-19T02:30:45;4.97;;;1.40;;
66721;SDS011;53633;49.932;10.884;2023-11-19T02:33:12;4.50;;;1.40;;
66721;SDS011;53633;49.932;10.884;2023-11-19T02:35:39;6.23;;;2.00;;
66721;SDS011;53633;49.932;10.884;2023-11-19T02:38:06;5.25;;;1.60;;
66721;SDS011;53633;49.932;10.884;2023-11-19T02:40:33;5.10;;;1.65;;
66721;SDS011;53633;49.932;10.884;2023-11-19T02:42:59;5.85;;;1.73;;
66721;SDS011;53633;49.932;10.884;2023-11-19T02:45:28;5.88;;;2.17;;
66721;SDS011;53633;49.932;10.884;2023-11-19T02:47:55;6.23;;;1.97;;
66721;SDS011;53633;49.932;10.884;2023-11-19T02:50:21;5.15;;;1.75;;
66721;SDS011;53633;49.932;10.884;2023-11-19T02:52:48;5.07;;;1.70;;
66721;SDS011;53633;49.932;10.884;2023-11-19T02:55:15;5.57;;;1.70;;
66721;SDS011;53633;49.932;10.884;2023-11-19T02:57:42;5.53;;;2.00;;
66721;SDS011;53633;49.932;10.884;2023-11-19T03:00:09;5.00;;;1.60;;
66721;SDS011;53633;49.932;10.884;2023-11-19T03:02:38;7.25;;;1.70;;
66721;SDS011;53633;49.932;10.884;2023-11-19T03:05:06;5.75;;;1.90;;
66721;SDS011;53633;49.932;10.884;2023-11-19T03:07:33;6.30;;;2.50;;
66721;SDS011;53633;49.932;10.884;2023-11-19T03:10:00;6.90;;;2.47;;
66721;SDS011;53633;49.932;10.884;2023-11-19T03:12:26;6.27;;;2.23;;
66721;SDS011;53633;49.932;10.884;2023-11-19T03:14:54;6.25;;;2.53;;
66721;SDS011;53633;49.932;10.884;2023-11-19T03:17:21;6.20;;;2.38;;
66721;SDS011;53633;49.932;10.884;2023-11-19T03:19:49;6.75;;;2.42;;
66721;SDS011;53633;49.932;10.884;2023-11-19T03:22:15;6.03;;;2.42;;
66721;SDS011;53633;49.932;10.884;2023-11-19T03:24:42;7.57;;;3.00;;
66721;SDS011;53633;49.932;10.884;2023-11-19T03:27:09;7.18;;;2.88;;
66721;SDS011;53633;49.932;10.884;2023-11-19T03:29:36;7.00;;;2.70;;
66721;SDS011;53633;49.932;10.884;2023-11-19T03:32:02;6.10;;;2.30;;
66721;SDS011;53633;49.932;10.884;2023-11-19T03:34:29;7.97;;;2.80;;
66721;SDS011;53633;49.932;10.884;2023-11-19T03:36:57;7.03;;;2.80;;
66721;SDS011;53633;49.932;10.884;2023-11-19T03:39:24;6.53;;;2.40;;
66721;SDS011;53633;49.932;10.884;2023-11-19T03:41:51;6.78;;;2.58;;
66721;SDS011;53633;49.932;10.884;2023-11-19T03:44:17;6.50;;;2.50;;
66721;SDS011;53633;49.932;10.884;2023-11-19T03:46:44;7.40;;;2.90;;
66721;SDS011;53633;49.932;10.884;2023-11-19T03:49:11;7.07;;;2.90;;
66721;SDS011;53633;49.932;10.884;2023-11-19T03:51:38;6.57;;;2.25;;
66721;SDS011;53633;49.932;10.884;2023-11-19T03:54:06;7.85;;;2.60;;
66721;SDS011;53633;49.932;10.884;2023-11-19T03:56:33;7.05;;;2.97;;
66721;SDS011;53633;49.932;10.884;2023-11-19T03:59:00;8.70;;;2.97;;
66721;SDS011;53633;49.932;10.884;2023-11-19T04:01:26;8.90;;;2.93;;
66721;SDS011;53633;49.932;10.884;2023-11-19T04:03:53;7.90;;;2.88;;
66721;SDS011;53633;49.932;10.884;2023-11-19T04:06:20;7.35;;;2.58;;
66721;SDS011;53633;49.932;10.884;2023-11-19T04:08:47;7.05;;;3.10;;
66721;SDS011;53633;49.932;10.884;2023-11-19T04:11:15;8.30;;;2.65;;
66721;SDS011;53633;49.932;10.884;2023-11-19T04:13:42;8.03;;;3.07;;
66721;SDS011;53633;49.932;10.884;2023-11-19T04:16:08;6.68;;;2.60;;
66721;SDS011;53633;49.932;10.884;2023-11-19T04:18:35;7.55;;;2.63;;
66721;SDS011;53633;49.932;10.884;2023-11-19T04:21:05;7.32;;;2.80;;
66721;SDS011;53633;49.932;10.884;2023-11-19T04:23:32;7.53;;;2.95;;
66721;SDS011;53633;49.932;10.884;2023-11-19T04:26:01;7.83;;;2.80;;
66721;SDS011;53633;49.932;10.884;2023-11-19T04:28:32;7.03;;;2.65;;
66721;SDS011;53633;49.932;10.884;2023-11-19T04:30:59;6.78;;;2.95;;
66721;SDS011;53633;49.932;10.884;2023-11-19T04:33:26;8.00;;;2.40;;
66721;SDS011;53633;49.932;10.884;2023-11-19T04:35:52;7.05;;;2.60;;
66721;SDS011;53633;49.932;10.884;2023-11-19T04:38:19;8.27;;;2.40;;
66721;SDS011;53633;49.932;10.884;2023-11-19T04:40:46;7.63;;;2.65;;
66721;SDS011;53633;49.932;10.884;2023-11-19T04:43:12;6.57;;;2.35;;
66721;SDS011;53633;49.932;10.884;2023-11-19T04:45:41;6.32;;;2.25;;
66721;SDS011;53633;49.932;10.884;2023-11-19T04:48:07;7.35;;;2.50;;
66721;SDS011;53633;49.932;10.884;2023-11-19T04:50:34;7.60;;;2.83;;
66721;SDS011;53633;49.932;10.884;2023-11-19T04:53:01;7.10;;;2.40;;
66721;SDS011;53633;49.932;10.884;2023-11-19T04:55:27;6.18;;;2.40;;
66721;SDS011;53633;49.932;10.884;2023-11-19T04:57:54;6.38;;;2.08;;
66721;SDS011;53633;49.932;10.884;2023-11-19T05:00:21;6.28;;;2.00;;
66721;SDS011;53633;49.932;10.884;2023-11-19T05:02:50;8.13;;;2.50;;
66721;SDS011;53633;49.932;10.884;2023-11-19T05:05:17;6.50;;;2.25;;
66721;SDS011;53633;49.932;10.884;2023-11-19T05:07:45;7.28;;;2.45;;
66721;SDS011;53633;49.932;10.884;2023-11-19T05:10:11;7.03;;;2.33;;
66721;SDS011;53633;49.932;10.884;2023-11-19T05:12:38;6.53;;;2.53;;
66721;SDS011;53633;49.932;10.884;2023-11-19T05:15:05;6.30;;;2.13;;
66721;SDS011;53633;49.932;10.884;2023-11-19T05:17:32;7.65;;;2.75;;
66721;SDS011;53633;49.932;10.884;2023-11-19T05:20:00;7.20;;;2.97;;
66721;SDS011;53633;49.932;10.884;2023-11-19T05:22:27;7.57;;;2.90;;
66721;SDS011;53633;49.932;10.884;2023-11-19T05:24:54;7.97;;;3.40;;
66721;SDS011;53633;49.932;10.884;2023-11-19T05:27:20;7.07;;;2.90;;
66721;SDS011;53633;49.932;10.884;2023-11-19T05:29:47;8.35;;;2.70;;
66721;SDS011;53633;49.932;10.884;2023-11-19T05:32:14;8.98;;;3.17;;
66721;SDS011;53633;49.932;10.884;2023-11-19T05:34:40;8.15;;;2.88;;
66721;SDS011;53633;49.932;10.884;2023-11-19T05:37:11;8.73;;;3.15;;
66721;SDS011;53633;49.932;10.884;2023-11-19T05:39:38;8.40;;;3.33;;
66721;SDS011;53633;49.932;10.884;2023-11-19T05:42:05;6.90;;;2.53;;
66721;SDS011;53633;49.932;10.884;2023-11-19T05:44:32;8.75;;;2.95;;
66721;SDS011;53633;49.932;10.884;2023-11-19T05:46:58;7.07;;;3.03;;
66721;SDS011;53633;49.932;10.884;2023-11-19T05:49:25;8.45;;;3.08;;
66721;SDS011;53633;49.932;10.884;2023-11-19T05:51:52;7.63;;;2.90;;
66721;SDS011;53633;49.932;10.884;2023-11-19T05:54:20;6.65;;;2.95;;
66721;SDS011;53633;49.932;10.884;2023-11-19T05:56:47;7.15;;;2.90;;
66721;SDS011;53633;49.932;10.884;2023-11-19T05:59:14;7.28;;;2.72;;
66721;SDS011;53633;49.932;10.884;2023-11-19T06:01:41;7.45;;;2.95;;
66721;SDS011;53633;49.932;10.884;2023-11-19T06:04:08;7.90;;;2.90;;
66721;SDS011;53633;49.932;10.884;2023-11-19T06:06:35;7.82;;;2.75;;
66721;SDS011;53633;49.932;10.884;2023-11-19T06:09:02;8.05;;;3.35;;
66721;SDS011;53633;49.932;10.884;2023-11-19T06:11:40;10.93;;;3.40;;
66721;SDS011;53633;49.932;10.884;2023-11-19T06:14:07;7.25;;;2.97;;
66721;SDS011;53633;49.932;10.884;2023-11-19T06:16:34;8.17;;;3.07;;
66721;SDS011;53633;49.932;10.884;2023-11-19T06:19:00;8.70;;;3.22;;
66721;SDS011;53633;49.932;10.884;2023-11-19T06:21:27;8.63;;;3.90;;
66721;SDS011;53633;49.932;10.884;2023-11-19T06:23:54;8.98;;;3.38;;
66721;SDS011;53633;49.932;10.884;2023-11-19T06:26:21;8.70;;;3.58;;
66721;SDS011;53633;49.932;10.884;2023-11-19T06:28:49;9.13;;;3.17;;
66721;SDS011;53633;49.932;10.884;2023-11-19T06:31:15;8.20;;;3.05;;
66721;SDS011;53633;49.932;10.884;2023-11-19T06:33:42;7.90;;;2.90;;
66721;SDS011;53633;49.932;10.884;2023-11-19T06:36:09;7.85;;;3.00;;
66721;SDS011;53633;49.932;10.884;2023-11-19T06:38:36;9.38;;;4.15;;
66721;SDS011;53633;49.932;10.884;2023-11-19T06:41:05;12.77;;;5.93;;
66721;SDS011;53633;49.932;10.884;2023-11-19T06:43:33;17.63;;;8.13;;
66721;SDS011;53633;49.932;10.884;2023-11-19T06:46:04;16.38;;;8.02;;
66721;SDS011;53633;49.932;10.884;2023-11-19T06:48:31;16.35;;;7.53;;
66721;SDS011;53633;49.932;10.884;2023-11-19T06:50:58;18.58;;;9.52;;
66721;SDS011;53633;49.932;10.884;2023-11-19T06:53:26;10.73;;;5.23;;
66721;SDS011;53633;49.932;10.884;2023-11-19T06:55:52;10.45;;;4.80;;
66721;SDS011;53633;49.932;10.884;2023-11-19T06:58:19;9.65;;;4.00;;
66721;SDS011;53633;49.932;10.884;2023-11-19T07:00:46;9.00;;;3.65;;
66721;SDS011;53633;49.932;10.884;2023-11-19T07:03:14;9.52;;;4.25;;
66721;SDS011;53633;49.932;10.884;2023-11-19T07:05:41;11.00;;;4.00;;
66721;SDS011;53633;49.932;10.884;2023-11-19T07:08:08;8.98;;;3.70;;
66721;SDS011;53633;49.932;10.884;2023-11-19T07:10:34;9.20;;;3.85;;
66721;SDS011;53633;49.932;10.884;2023-11-19T07:13:01;8.82;;;3.42;;
66721;SDS011;53633;49.932;10.884;2023-11-19T07:15:28;9.13;;;3.78;;
66721;SDS011;53633;49.932;10.884;2023-11-19T07:17:55;8.57;;;3.90;;
66721;SDS011;53633;49.932;10.884;2023-11-19T07:20:26;9.00;;;3.70;;
66721;SDS011;53633;49.932;10.884;2023-11-19T07:22:52;9.60;;;4.35;;
66721;SDS011;53633;49.932;10.884;2023-11-19T07:25:23;14.15;;;5.80;;
66721;SDS011;53633;49.932;10.884;2023-11-19T07:27:51;9.13;;;4.20;;
66721;SDS011;53633;49.932;10.884;2023-11-19T07:30:18;8.97;;;3.53;;
66721;SDS011;53633;49.932;10.884;2023-11-19T07:32:44;9.77;;;3.83;;
66721;SDS011;53633;49.932;10.884;2023-11-19T07:35:11;12.20;;;5.28;;
66721;SDS011;53633;49.932;10.884;2023-11-19T07:37:39;12.68;;;6.28;;
66721;SDS011;53633;49.932;10.884;2023-11-19T07:40:07;12.63;;;6.20;;
66721;SDS011;53633;49.932;10.884;2023-11-19T07:42:34;11.70;;;4.87;;
66721;SDS011;53633;49.932;10.884;2023-11-19T07:45:01;10.55;;;3.92;;
66721;SDS011;53633;49.932;10.884;2023-11-19T07:47:28;9.05;;;3.72;;
66721;SDS011;53633;49.932;10.884;2023-11-19T07:49:55;10.52;;;4.80;;
66721;SDS011;53633;49.932;10.884;2023-11-19T07:52:24;10.10;;;5.25;;
66721;SDS011;53633;49.932;10.884;2023-11-19T07:54:55;10.67;;;6.40;;
66721;SDS011;53633;49.932;10.884;2023-11-19T07:57:23;9.50;;;4.30;;
66721;SDS011;53633;49.932;10.884;2023-11-19T07:59:58;10.57;;;4.45;;
66721;SDS011;53633;49.932;10.884;2023-11-19T08:02:24;11.00;;;3.88;;
66721;SDS011;53633;49.932;10.884;2023-11-19T08:04:51;10.77;;;3.50;;
66721;SDS011;53633;49.932;10.884;2023-11-19T08:07:18;11.43;;;3.80;;
66721;SDS011;53633;49.932;10.884;2023-11-19T08:09:45;11.27;;;4.38;;
66721;SDS011;53633;49.932;10.884;2023-11-19T08:12:13;9.60;;;4.05;;
66721;SDS011;53633;49.932;10.884;2023-11-19T08:14:40;8.27;;;3.28;;
66721;SDS011;53633;49.932;10.884;2023-11-19T08:17:07;9.27;;;3.88;;
66721;SDS011;53633;49.932;10.884;2023-11-19T08:19:33;8.87;;;3.50;;
66721;SDS011;53633;49.932;10.884;2023-11-19T08:22:00;9.65;;;3.38;;
66721;SDS011;53633;49.932;10.884;2023-11-19T08:24:27;7.32;;;2.95;;
66721;SDS011;53633;49.932;10.884;2023-11-19T08:26:53;11.10;;;4.55;;
66721;SDS011;53633;49.932;10.884;2023-11-19T08:29:24;9.18;;;3.97;;
66721;SDS011;53633;49.932;10.884;2023-11-19T08:31:51;7.80;;;3.17;;
66721;SDS011;53633;49.932;10.884;2023-11-19T08:34:18;7.88;;;3.05;;
66721;SDS011;53633;49.932;10.884;2023-11-19T08:36:45;10.85;;;3.95;;
66721;SDS011;53633;49.932;10.884;2023-11-19T08:39:11;11.25;;;4.68;;
66721;SDS011;53633;49.932;10.884;2023-11-19T08:41:38;14.68;;;6.00;;
66721;SDS011;53633;49.932;10.884;2023-11-19T08:44:05;33.57;;;12.63;;
66721;SDS011;53633;49.932;10.884;2023-11-19T08:46:33;37.70;;;14.88;;
66721;SDS011;53633;49.932;10.884;2023-11-19T08:49:00;21.02;;;8.15;;
66721;SDS011;53633;49.932;10.884;2023-11-19T08:51:26;23.20;;;9.30;;
66721;SDS011;53633;49.932;10.884;2023-11-19T08:53:53;19.73;;;8.35;;
66721;SDS011;53633;49.932;10.884;2023-11-19T08:56:20;20.53;;;8.50;;
66721;SDS011;53633;49.932;10.884;2023-11-19T08:58:46;31.65;;;13.98;;
66721;SDS011;53633;49.932;10.884;2023-11-19T09:01:13;20.77;;;9.02;;
66721;SDS011;53633;49.932;10.884;2023-11-19T09:03:41;16.17;;;6.90;;
66721;SDS011;53633;49.932;10.884;2023-11-19T09:06:08;26.08;;;10.13;;
66721;SDS011;53633;49.932;10.884;2023-11-19T09:08:35;22.47;;;8.90;;
66721;SDS011;53633;49.932;10.884;2023-11-19T09:11:06;37.58;;;13.18;;
66721;SDS011;53633;49.932;10.884;2023-11-19T09:13:33;18.05;;;7.65;;
66721;SDS011;53633;49.932;10.884;2023-11-19T09:15:59;14.93;;;7.25;;
66721;SDS011;53633;49.932;10.884;2023-11-19T09:18:26;16.40;;;6.20;;
66721;SDS011;53633;49.932;10.884;2023-11-19T09:20:54;12.47;;;5.50;;
66721;SDS011;53633;49.932;10.884;2023-11-19T09:23:21;12.73;;;4.75;;
66721;SDS011;53633;49.932;10.884;2023-11-19T09:25:48;11.52;;;5.03;;
66721;SDS011;53633;49.932;10.884;2023-11-19T09:28:15;10.40;;;5.07;;
66721;SDS011;53633;49.932;10.884;2023-11-19T09:30:41;16.08;;;5.43;;
66721;SDS011;53633;49.932;10.884;2023-11-19T09:33:08;10.90;;;3.80;;
66721;SDS011;53633;49.932;10.884;2023-11-19T09:35:35;7.90;;;2.50;;
66721;SDS011;53633;49.932;10.884;2023-11-19T09:38:03;5.95;;;2.20;;
66721;SDS011;53633;49.932;10.884;2023-11-19T09:40:31;8.20;;;2.65;;
66721;SDS011;53633;49.932;10.884;2023-11-19T09:42:57;7.60;;;2.78;;
66721;SDS011;53633;49.932;10.884;2023-11-19T09:45:25;7.07;;;1.93;;
66721;SDS011;53633;49.932;10.884;2023-11-19T09:47:54;6.55;;;2.08;;
66721;SDS011;53633;49.932;10.884;2023-11-19T09:50:23;7.22;;;2.58;;
66721;SDS011;53633;49.932;10.884;2023-11-19T09:52:50;5.43;;;1.70;;
66721;SDS011;53633;49.932;10.884;2023-11-19T09:55:18;9.23;;;2.70;;
66721;SDS011;53633;49.932;10.884;2023-11-19T09:57:45;8.90;;;2.37;;
66721;SDS011;53633;49.932;10.884;2023-11-19T10:00:13;6.00;;;1.70;;
66721;SDS011;53633;49.932;10.884;2023-11-19T10:02:42;5.93;;;1.90;;
66721;SDS011;53633;49.932;10.884;2023-11-19T10:05:10;8.15;;;2.63;;
66721;SDS011;53633;49.932;10.884;2023-11-19T10:07:37;7.05;;;2.42;;
66721;SDS011;53633;49.932;10.884;2023-11-19T10:10:05;8.33;;;2.97;;
66721;SDS011;53633;49.932;10.884;2023-11-19T10:12:33;6.22;;;2.25;;
66721;SDS011;53633;49.932;10.884;2023-11-19T10:15:00;8.27;;;3.08;;
66721;SDS011;53633;49.932;10.884;2023-11-19T10:17:27;8.13;;;3.05;;
66721;SDS011;53633;49.932;10.884;2023-11-19T10:19:54;14.32;;;5.28;;
66721;SDS011;53633;49.932;10.884;2023-11-19T10:22:22;12.67;;;4.43;;
66721;SDS011;53633;49.932;10.884;2023-11-19T10:24:49;15.50;;;4.88;;
66721;SDS011;53633;49.932;10.884;2023-11-19T10:27:23;11.52;;;4.38;;
66721;SDS011;53633;49.932;10.884;2023-11-19T10:29:51;10.88;;;2.40;;
66721;SDS011;53633;49.932;10.884;2023-11-19T10:32:18;5.47;;;1.70;;
66721;SDS011;53633;49.932;10.884;2023-11-19T10:34:52;6.03;;;2.27;;
66721;SDS011;53633;49.932;10.884;2023-11-19T10:37:30;7.03;;;1.92;;
66721;SDS011;53633;49.932;10.884;2023-11-19T10:39:57;6.10;;;2.22;;
66721;SDS011;53633;49.932;10.884;2023-11-19T10:42:24;6.55;;;2.40;;
66721;SDS011;53633;49.932;10.884;2023-11-19T10:44:52;6.32;;;2.30;;
66721;SDS011;53633;49.932;10.884;2023-11-19T10:47:18;4.90;;;2.30;;
66721;SDS011;53633;49.932;10.884;2023-11-19T10:50:03;5.60;;;2.00;;
66721;SDS011;53633;49.932;10.884;2023-11-19T10:52:30;7.35;;;2.28;;
66721;SDS011;53633;49.932;10.884;2023-11-19T10:54:57;6.50;;;1.67;;
66721;SDS011;53633;49.932;10.884;2023-11-19T10:57:26;5.30;;;1.40;;
66721;SDS011;53633;49.932;10.884;2023-11-19T11:00:00;5.03;;;1.57;;
66721;SDS011;53633;49.932;10.884;2023-11-19T11:02:28;4.65;;;1.70;;
66721;SDS011;53633;49.932;10.884;2023-11-19T11:05:01;4.20;;;1.35;;
66721;SDS011;53633;49.932;10.884;2023-11-19T11:07:28;5.60;;;1.75;;
66721;SDS011;53633;49.932;10.884;2023-11-19T11:10:07;4.07;;;1.50;;
66721;SDS011;53633;49.932;10.884;2023-11-19T11:12:34;5.37;;;1.10;;
66721;SDS011;53633;49.932;10.884;2023-11-19T11:15:06;4.43;;;1.23;;
66721;SDS011;53633;49.932;10.884;2023-11-19T11:17:34;4.65;;;1.65;;
66721;SDS011;53633;49.932;10.884;2023-11-19T11:20:02;5.47;;;1.48;;
66721;SDS011;53633;49.932;10.884;2023-11-19T11:22:30;3.80;;;0.90;;
66721;SDS011;53633;49.932;10.884;2023-11-19T11:25:16;3.50;;;0.90;;
66721;SDS011;53633;49.932;10.884;2023-11-19T11:27:57;5.72;;;1.20;;
66721;SDS011;53633;49.932;10.884;2023-11-19T11:30:35;5.43;;;1.40;;
66721;SDS011;53633;49.932;10.884;2023-11-19T11:33:15;4.65;;;1.35;;
66721;SDS011;53633;49.932;10.884;2023-11-19T11:35:53;5.43;;;1.50;;
66721;SDS011;53633;49.932;10.884;2023-11-19T11:38:27;4.83;;;1.20;;
66721;SDS011;53633;49.932;10.884;2023-11-19T11:43:47;5.07;;;0.98;;
66721;SDS011;53633;49.932;10.884;2023-11-19T11:49:25;6.93;;;2.00;;
66721;SDS011;53633;49.932;10.884;2023-11-19T11:52:03;5.23;;;1.30;;
66721;SDS011;53633;49.932;10.884;2023-11-19T11:54:30;5.68;;;1.67;;
66721;SDS011;53633;49.932;10.884;2023-11-19T11:57:01;6.72;;;1.80;;
66721;SDS011;53633;49.932;10.884;2023-11-19T11:59:48;6.80;;;1.80;;
66721;SDS011;53633;49.932;10.884;2023-11-19T12:02:17;6.43;;;1.50;;
66721;SDS011;53633;49.932;10.884;2023-11-19T12:04:48;3.50;;;1.20;;
66721;SDS011;53633;49.932;10.884;2023-11-19T12:07:17;7.22;;;1.60;;
66721;SDS011;53633;49.932;10.884;2023-11-19T12:09:50;5.40;;;1.10;;
66721;SDS011;53633;49.932;10.884;2023-11-19T12:12:19;6.78;;;1.15;;
66721;SDS011;53633;49.932;10.884;2023-11-19T12:15:00;5.75;;;1.00;;
66721;SDS011;53633;49.932;10.884;2023-11-19T12:17:37;5.93;;;0.97;;
66721;SDS011;53633;49.932;10.884;2023-11-19T12:20:09;6.82;;;1.10;;
66721;SDS011;53633;49.932;10.884;2023-11-19T12:22:35;3.45;;;1.30;;
66721;SDS011;53633;49.932;10.884;2023-11-19T12:25:04;7.22;;;1.73;;
66721;SDS011;53633;49.932;10.884;2023-11-19T12:27:32;6.95;;;1.67;;
66721;SDS011;53633;49.932;10.884;2023-11-19T12:29:58;9.33;;;1.57;;
66721;SDS011;53633;49.932;10.884;2023-11-19T12:32:25;7.57;;;1.40;;
66721;SDS011;53633;49.932;10.884;2023-11-19T12:34:53;8.90;;;1.35;;
66721;SDS011;53633;49.932;10.884;2023-11-19T12:37:20;5.25;;;1.10;;
66721;SDS011;53633;49.932;10.884;2023-11-19T12:39:47;7.10;;;0.98;;
66721;SDS011;53633;49.932;10.884;2023-11-19T12:42:14;4.73;;;1.20;;
66721;SDS011;53633;49.932;10.884;2023-11-19T12:44:53;5.43;;;1.38;;
66721;SDS011;53633;49.932;10.884;2023-11-19T12:47:21;6.25;;;1.30;;
66721;SDS011;53633;49.932;10.884;2023-11-19T12:49:56;5.03;;;1.30;;
66721;SDS011;53633;49.932;10.884;2023-11-19T12:52:22;4.45;;;1.20;;
66721;SDS011;53633;49.932;10.884;2023-11-19T12:54:49;6.83;;;1.10;;
66721;SDS011;53633;49.932;10.884;2023-11-19T12:57:16;7.70;;;1.95;;
66721;SDS011;53633;49.932;10.884;2023-11-19T12:59:43;6.75;;;1.67;;
66721;SDS011;53633;49.932;10.884;2023-11-19T13:02:20;6.90;;;1.80;;
66721;SDS011;53633;49.932;10.884;2023-11-19T13:04:47;5.38;;;1.50;;
66721;SDS011;53633;49.932;10.884;2023-11-19T13:07:15;4.80;;;1.17;;
66721;SDS011;53633;49.932;10.884;2023-11-19T13:09:47;9.57;;;1.30;;
66721;SDS011;53633;49.932;10.884;2023-11-19T13:12:14;5.32;;;1.33;;
66721;SDS011;53633;49.932;10.884;2023-11-19T13:14:41;5.53;;;1.67;;
66721;SDS011;53633;49.932;10.884;2023-11-19T13:17:08;5.85;;;1.50;;
66721;SDS011;53633;49.932;10.884;2023-11-19T13:19:35;7.63;;;1.87;;
66721;SDS011;53633;49.932;10.884;2023-11-19T13:22:01;4.43;;;1.08;;
66721;SDS011;53633;49.932;10.884;2023-11-19T13:24:29;6.22;;;1.70;;
66721;SDS011;53633;49.932;10.884;2023-11-19T13:26:56;5.07;;;1.58;;
66721;SDS011;53633;49.932;10.884;2023-11-19T13:29:23;6.53;;;1.77;;
66721;SDS011;53633;49.932;10.884;2023-11-19T13:31:49;6.03;;;1.53;;
66721;SDS011;53633;49.932;10.884;2023-11-19T13:34:16;5.18;;;1.35;;
66721;SDS011;53633;49.932;10.884;2023-11-19T13:36:43;11.50;;;2.35;;
66721;SDS011;53633;49.932;10.884;2023-11-19T13:39:10;8.15;;;1.95;;
66721;SDS011;53633;49.932;10.884;2023-11-19T13:41:38;6.30;;;1.50;;
66721;SDS011;53633;49.932;10.884;2023-11-19T13:44:05;11.97;;;1.90;;
66721;SDS011;53633;49.932;10.884;2023-11-19T13:46:31;8.07;;;1.30;;
66721;SDS011;53633;49.932;10.884;2023-11-19T13:48:58;5.75;;;1.40;;
66721;SDS011;53633;49.932;10.884;2023-11-19T13:51:25;9.40;;;1.80;;
66721;SDS011;53633;49.932;10.884;2023-11-19T13:53:52;4.72;;;1.05;;
66721;SDS011;53633;49.932;10.884;2023-11-19T13:56:18;4.77;;;1.10;;
66721;SDS011;53633;49.932;10.884;2023-11-19T13:58:46;6.72;;;1.40;;
66721;SDS011;53633;49.932;10.884;2023-11-19T14:01:13;7.43;;;2.22;;
66721;SDS011;53633;49.932;10.884;2023-11-19T14:03:40;4.38;;;1.05;;
66721;SDS011;53633;49.932;10.884;2023-11-19T14:06:07;6.43;;;0.85;;
66721;SDS011;53633;49.932;10.884;2023-11-19T14:08:34;6.20;;;1.50;;
66721;SDS011;53633;49.932;10.884;2023-11-19T14:11:01;7.03;;;1.45;;
66721;SDS011;53633;49.932;10.884;2023-11-19T14:13:28;8.65;;;1.98;;
66721;SDS011;53633;49.932;10.884;2023-11-19T14:15:56;10.65;;;2.45;;
66721;SDS011;53633;49.932;10.884;2023-11-19T14:18:23;8.10;;;1.55;;
66721;SDS011;53633;49.932;10.884;2023-11-19T14:20:50;11.50;;;1.87;;
66721;SDS011;53633;49.932;10.884;2023-11-19T14:23:16;6.32;;;2.03;;
66721;SDS011;53633;49.932;10.884;2023-11-19T14:25:43;6.30;;;1.27;;
66721;SDS011;53633;49.932;10.884;2023-11-19T14:28:10;6.32;;;2.03;;
66721;SDS011;53633;49.932;10.884;2023-11-19T14:30:37;6.18;;;1.90;;
66721;SDS011;53633;49.932;10.884;2023-11-19T14:33:05;6.17;;;1.97;;
66721;SDS011;53633;49.932;10.884;2023-11-19T14:35:32;9.02;;;1.95;;
66721;SDS011;53633;49.932;10.884;2023-11-19T14:37:59;5.45;;;1.98;;
66721;SDS011;53633;49.932;10.884;2023-11-19T14:40:26;9.70;;;2.03;;
66721;SDS011;53633;49.932;10.884;2023-11-19T14:42:55;7.43;;;2.72;;